Time;durP1;ratioP1;P1;durP2;ratioP2;P2;SDS_P1;SDS_P2;PMS_P1;PMS_P2;Temp;Humidity;BMP_temperature;BMP_pressure;BME280_temperature;BME280_humidity;BME280_pressure;Samples;Min_cycle;Max_cycle;Signal;HPM_P1;HPM_P2
2022/01/28 00:00:31;;;;;;;7.50;3.30;;;;;;;1.78;91.01;98952.50;5040888;28;20048;-59
2022/01/28 00:03:17;;;;;;;6.13;3.88;;;;;;;1.83;90.82;98947.19;5034703;28;20392;-58
2022/01/28 00:06:04;;;;;;;5.38;2.30;;;;;;;1.76;90.38;98918.13;5025802;28;20752;-60
2022/01/28 00:08:50;;;;;;;3.88;2.20;;;;;;;1.94;90.04;98944.31;5034683;28;20056;-59
2022/01/28 00:11:36;;;;;;;4.15;2.58;;;;;;;1.95;89.92;98939.09;5034590;28;20491;-59
2022/01/28 00:14:40;;;;;;;4.65;2.42;;;;;;;2.00;89.94;98926.03;5034148;28;20381;-59
2022/01/28 00:38:10;;;;;;;4.70;2.03;;;;;;;2.06;89.41;98933.59;5033008;28;20052;-60
2022/01/28 00:40:55;;;;;;;3.60;2.38;;;;;;;2.07;89.43;98963.69;5033055;28;20049;-59
2022/01/28 00:43:41;;;;;;;4.47;2.60;;;;;;;2.05;89.33;98931.91;5034326;28;20067;-59
2022/01/28 00:46:27;;;;;;;3.40;1.98;;;;;;;2.02;89.79;98942.34;5038523;28;20064;-59
2022/01/28 00:49:14;;;;;;;3.92;2.50;;;;;;;1.90;89.84;98919.44;5033919;28;20115;-59
2022/01/28 00:52:00;;;;;;;4.90;2.17;;;;;;;2.04;89.35;98937.94;5052851;28;20401;-60
2022/01/28 00:54:46;;;;;;;3.03;1.65;;;;;;;1.90;89.82;98959.06;5032700;28;20508;-58
2022/01/28 00:57:32;;;;;;;4.85;2.15;;;;;;;2.06;89.54;98969.78;5033298;28;20056;-59
2022/01/28 01:00:17;;;;;;;3.95;2.22;;;;;;;2.13;89.41;98970.44;5033573;28;20056;-59
2022/01/28 01:03:04;;;;;;;4.72;2.05;;;;;;;2.12;89.20;98960.16;5034012;28;20068;-59
2022/01/28 01:05:50;;;;;;;3.25;2.10;;;;;;;2.08;89.31;98943.88;5039630;28;20056;-60
2022/01/28 01:08:36;;;;;;;2.60;1.70;;;;;;;2.12;89.27;98957.56;5033675;28;20041;-60
2022/01/28 01:11:24;;;;;;;2.30;1.50;;;;;;;2.18;89.08;98978.91;5033604;28;20048;-59
2022/01/28 01:14:10;;;;;;;2.67;1.65;;;;;;;2.27;88.61;98975.19;5033308;28;20512;-60
2022/01/28 01:17:23;;;;;;;2.88;1.88;;;;;;;2.35;88.26;98987.88;5032863;28;20412;-60
2022/01/28 01:20:16;;;;;;;2.28;1.48;;;;;;;2.27;88.63;98993.28;5034188;28;20060;-60
2022/01/28 01:25:55;;;;;;;2.45;1.00;;;;;;;2.55;87.77;99005.34;5012875;28;20405;-60
2022/01/28 01:28:42;;;;;;;2.17;1.33;;;;;;;2.44;88.26;98986.75;5013174;28;20052;-60
2022/01/28 01:31:27;;;;;;;2.10;1.20;;;;;;;2.55;87.79;98960.53;5018113;28;20057;-59
2022/01/28 01:34:17;;;;;;;2.53;1.38;;;;;;;2.58;87.77;98992.31;5013730;28;20061;-59
2022/01/28 01:37:02;;;;;;;2.42;1.38;;;;;;;2.68;87.19;98987.69;5013358;28;20057;-59
2022/01/28 01:39:51;;;;;;;2.65;1.42;;;;;;;2.66;87.27;98994.66;5013351;28;20053;-59
2022/01/28 01:42:48;;;;;;;2.00;1.27;;;;;;;2.75;86.60;98997.84;5025965;28;20064;-59
2022/01/28 01:54:36;;;;;;;2.58;1.05;;;;;;;2.96;85.37;99004.06;5032050;28;20052;-60
2022/01/28 01:57:22;;;;;;;1.80;1.20;;;;;;;2.90;85.59;98996.50;5032793;28;20052;-60
2022/01/28 02:00:09;;;;;;;2.08;1.30;;;;;;;2.66;85.84;98970.53;5032774;28;20056;-60
2022/01/28 02:02:54;;;;;;;1.75;0.93;;;;;;;2.94;85.55;99021.38;5032576;28;20056;-58
2022/01/28 02:05:40;;;;;;;2.08;1.05;;;;;;;2.88;85.75;98996.56;5032635;28;20052;-59
2022/01/28 02:08:28;;;;;;;1.90;0.90;;;;;;;3.06;84.89;99018.41;5031508;28;20054;-59
2022/01/28 02:11:14;;;;;;;1.52;0.70;;;;;;;3.13;84.29;99019.03;5032448;28;20053;-59
2022/01/28 02:14:00;;;;;;;1.13;0.77;;;;;;;2.94;85.42;99014.47;5025583;28;20056;-60
2022/01/28 02:16:46;;;;;;;1.95;0.85;;;;;;;2.85;85.75;99017.34;5030638;28;20420;-59
2022/01/28 02:19:32;;;;;;;2.05;1.13;;;;;;;2.74;85.79;99004.78;5045142;28;20056;-58
2022/01/28 02:22:19;;;;;;;2.28;0.75;;;;;;;2.74;86.62;99033.25;5032514;28;20052;-58
2022/01/28 02:25:05;;;;;;;1.65;1.00;;;;;;;2.75;86.48;99029.75;5032316;28;20531;-60
2022/01/28 02:27:51;;;;;;;3.17;1.02;;;;;;;2.99;84.92;99026.44;5032565;28;20052;-59
2022/01/28 02:30:37;;;;;;;1.38;0.80;;;;;;;2.78;85.42;99014.13;5032243;28;20064;-59
2022/01/28 02:33:25;;;;;;;1.15;0.70;;;;;;;2.85;85.28;99032.03;5031867;28;20052;-59
2022/01/28 02:36:11;;;;;;;1.92;1.13;;;;;;;2.97;85.00;99030.78;5052352;28;20060;-59
2022/01/28 02:38:58;;;;;;;2.38;1.10;;;;;;;2.99;84.66;99045.38;5040991;28;20409;-58
2022/01/28 02:41:48;;;;;;;2.63;0.98;;;;;;;2.84;85.22;99044.13;5035386;28;20052;-59
2022/01/28 02:47:36;;;;;;;1.40;0.90;;;;;;;2.76;85.47;99044.38;5040948;28;20060;-59
2022/01/28 02:50:23;;;;;;;1.10;0.68;;;;;;;2.96;84.72;99045.47;5036290;28;20056;-59
2022/01/28 02:53:20;;;;;;;1.65;1.00;;;;;;;2.87;85.33;99059.56;5041056;28;20056;-59
2022/01/28 02:56:16;;;;;;;1.58;0.90;;;;;;;2.99;84.64;99052.31;5036001;28;20400;-59
2022/01/28 02:59:02;;;;;;;1.80;0.73;;;;;;;2.85;85.08;99056.19;5042206;28;20053;-59
2022/01/28 03:01:48;;;;;;;1.33;0.52;;;;;;;2.89;85.27;99046.59;5042170;28;20049;-59
2022/01/28 03:07:34;;;;;;;1.73;0.80;;;;;;;2.88;85.57;99066.44;5035982;28;20064;-59
2022/01/28 03:10:30;;;;;;;1.08;0.60;;;;;;;2.74;86.19;99071.19;5036077;28;20076;-59
2022/01/28 03:14:14;;;;;;;2.10;1.00;;;;;;;2.69;86.62;99061.00;5036109;28;20056;-59
2022/01/28 03:16:23;;;;;;;1.52;0.98;;;;;;;2.57;87.36;99062.22;5036385;28;20064;-59
2022/01/28 03:19:18;;;;;;;1.48;1.00;;;;;;;2.68;86.84;99064.47;5035737;28;20072;-59
2022/01/28 03:22:04;;;;;;;1.65;0.75;;;;;;;2.91;85.45;99076.69;5035726;28;20056;-59
2022/01/28 03:24:52;;;;;;;1.95;0.90;;;;;;;2.57;87.00;99062.22;5035800;28;20064;-60
2022/01/28 03:30:34;;;;;;;1.38;0.90;;;;;;;2.57;87.04;99073.41;5035662;28;20076;-59
2022/01/28 03:33:21;;;;;;;1.38;0.80;;;;;;;2.59;87.12;99075.97;5035012;28;20048;-59
2022/01/28 03:36:11;;;;;;;1.52;1.00;;;;;;;2.61;87.08;99075.91;5034968;28;20056;-59
2022/01/28 03:38:57;;;;;;;1.33;0.95;;;;;;;2.69;85.88;99069.59;5040262;28;20580;-59
2022/01/28 03:41:43;;;;;;;1.27;0.80;;;;;;;2.45;87.10;99066.88;5035649;28;20060;-59
2022/01/28 03:44:29;;;;;;;1.90;0.98;;;;;;;2.50;86.86;99066.72;5033850;28;20406;-59
2022/01/28 03:47:15;;;;;;;1.85;0.73;;;;;;;2.53;86.42;99066.63;5034860;28;20076;-59
2022/01/28 03:50:00;;;;;;;1.83;1.10;;;;;;;2.44;86.84;99051.41;5035304;28;20052;-59
2022/01/28 03:52:46;;;;;;;1.55;1.00;;;;;;;2.33;86.88;99043.97;5034176;28;20053;-59
2022/01/28 03:55:32;;;;;;;1.45;0.80;;;;;;;2.49;86.81;99067.63;5035239;28;20044;-59
2022/01/28 03:58:18;;;;;;;2.45;0.70;;;;;;;2.31;87.75;99067.28;5034914;28;20052;-59
2022/01/28 04:01:09;;;;;;;2.28;0.90;;;;;;;2.37;87.50;99061.06;5035105;28;20060;-59
2022/01/28 04:12:50;;;;;;;1.90;0.68;;;;;;;2.37;87.29;99076.59;5034028;28;20052;-60
2022/01/28 04:15:50;;;;;;;0.93;0.68;;;;;;;2.39;86.74;99080.00;5034893;28;20060;-60
2022/01/28 04:18:35;;;;;;;0.93;0.57;;;;;;;2.37;87.20;99074.00;5034712;28;20056;-59
2022/01/28 04:21:21;;;;;;;2.13;1.05;;;;;;;2.29;87.26;99066.47;5034599;28;20057;-61
2022/01/28 04:24:06;;;;;;;1.38;0.80;;;;;;;2.34;87.10;99082.72;5040322;28;20504;-59
2022/01/28 04:26:52;;;;;;;1.58;0.90;;;;;;;2.15;88.20;99073.81;5034959;28;20052;-59
2022/01/28 04:29:38;;;;;;;1.70;0.80;;;;;;;2.13;87.95;99060.91;5033590;28;20057;-59
2022/01/28 04:32:26;;;;;;;1.30;0.68;;;;;;;2.04;88.52;99064.59;5034383;28;20057;-59
2022/01/28 04:35:12;;;;;;;1.30;0.90;;;;;;;2.17;87.81;99064.28;5034607;28;20508;-59
2022/01/28 04:38:16;;;;;;;3.05;1.00;;;;;;;2.10;88.11;99076.53;5033932;28;20053;-59
2022/01/28 04:44:17;;;;;;;1.27;1.00;;;;;;;2.16;87.84;99059.97;5038865;28;20080;-59
2022/01/28 04:47:11;;;;;;;1.75;1.10;;;;;;;1.97;88.92;99066.50;5034047;28;20052;-59
2022/01/28 04:53:15;;;;;;;2.28;1.05;;;;;;;1.94;88.33;99060.59;5039603;28;20049;-59
2022/01/28 04:56:15;;;;;;;1.52;0.93;;;;;;;1.81;88.89;99060.94;5046798;28;20049;-59
2022/01/28 05:28:20;;;;;;;0.88;0.60;;;;;;;1.66;85.72;99100.13;5032889;28;20060;-60
2022/01/28 05:31:06;;;;;;;1.10;0.60;;;;;;;1.97;83.59;99115.63;5033427;28;20076;-60
2022/01/28 05:33:51;;;;;;;1.35;0.80;;;;;;;1.99;82.71;99120.78;5033741;28;20060;-60
2022/01/28 05:36:37;;;;;;;1.35;0.55;;;;;;;2.19;81.03;99119.34;5039243;28;20057;-59
2022/01/28 05:39:23;;;;;;;1.05;0.55;;;;;;;2.30;80.25;99121.66;5033273;28;20068;-60
2022/01/28 05:42:09;;;;;;;1.63;0.57;;;;;;;2.40;79.24;99122.22;5032898;28;20056;-59
2022/01/28 05:44:54;;;;;;;0.65;0.40;;;;;;;2.33;79.07;99112.03;5033093;28;20048;-59
2022/01/28 05:47:40;;;;;;;0.80;0.50;;;;;;;2.47;79.11;99126.31;5032990;28;20072;-59
2022/01/28 05:50:26;;;;;;;1.27;0.65;;;;;;;2.50;79.21;99133.16;5031668;28;20057;-59
2022/01/28 05:53:12;;;;;;;0.90;0.47;;;;;;;2.61;78.33;99112.13;5033056;28;20413;-59
2022/01/28 05:55:58;;;;;;;1.52;0.55;;;;;;;2.50;79.12;99107.28;5032853;28;20056;-59
2022/01/28 05:58:43;;;;;;;1.73;0.60;;;;;;;2.51;79.40;99132.25;5032924;28;20508;-59
2022/01/28 06:01:29;;;;;;;0.82;0.38;;;;;;;2.52;79.72;99121.84;5032672;28;20072;-59
2022/01/28 06:04:15;;;;;;;1.50;0.50;;;;;;;2.56;79.59;99126.03;5012204;28;20057;-59
2022/01/28 06:07:01;;;;;;;1.33;0.57;;;;;;;2.62;79.47;99143.13;5012833;28;20049;-58
2022/01/28 06:09:47;;;;;;;5.38;2.67;;;;;;;2.62;81.23;99160.38;5012909;28;20057;-59
2022/01/28 06:12:41;;;;;;;3.10;1.83;;;;;;;2.58;80.84;99196.69;5012508;28;20057;-59
2022/01/28 06:15:27;;;;;;;2.42;1.40;;;;;;;2.31;83.04;99181.06;5012768;28;20057;-59
2022/01/28 06:18:13;;;;;;;1.15;0.57;;;;;;;2.24;84.48;99158.84;5012349;28;20508;-60
2022/01/28 06:21:02;;;;;;;2.35;0.80;;;;;;;2.12;85.58;99173.00;5012263;28;20065;-58
2022/01/28 06:23:52;;;;;;;1.45;0.68;;;;;;;2.14;85.53;99191.03;5025495;28;20061;-57
2022/01/28 06:26:40;;;;;;;0.50;0.32;;;;;;;2.04;85.40;99188.69;5032158;28;20061;-59
2022/01/28 06:29:26;;;;;;;1.33;0.40;;;;;;;2.05;86.01;99189.53;5031135;28;20500;-59
2022/01/28 06:32:11;;;;;;;0.30;0.25;;;;;;;2.05;85.66;99172.31;5032409;28;20048;-58
2022/01/28 06:34:58;;;;;;;0.30;0.20;;;;;;;1.96;85.65;99190.63;5038558;28;20056;-59
2022/01/28 06:37:45;;;;;;;0.47;0.20;;;;;;;1.96;86.47;99201.81;5031284;28;20071;-58
2022/01/28 06:40:30;;;;;;;0.25;0.10;;;;;;;1.98;87.79;99201.78;5032180;28;20048;-58
2022/01/28 06:43:16;;;;;;;0.57;0.35;;;;;;;1.80;90.36;99192.75;5020945;28;20049;-58
2022/01/28 06:46:02;;;;;;;2.30;0.50;;;;;;;1.68;91.45;99189.59;5012184;28;20401;-58
2022/01/28 06:48:48;;;;;;;1.25;0.50;;;;;;;1.75;91.06;99194.63;5012146;28;20147;-58
2022/01/28 06:51:34;;;;;;;0.40;0.28;;;;;;;1.94;90.28;99200.16;5010885;28;20061;-57
2022/01/28 06:54:20;;;;;;;1.55;0.30;;;;;;;1.81;90.82;99209.97;5011700;28;20397;-58
2022/01/28 06:57:06;;;;;;;0.20;0.10;;;;;;;1.66;91.14;99206.03;5017379;28;20057;-58
2022/01/28 06:59:52;;;;;;;1.55;0.25;;;;;;;2.48;88.00;99213.34;5011267;28;20508;-58
2022/01/28 07:02:38;;;;;;;0.40;0.20;;;;;;;2.90;85.21;99213.91;5012319;28;20136;-58
2022/01/28 07:05:24;;;;;;;0.40;0.22;;;;;;;3.32;82.87;99217.81;5038535;28;20477;-59
2022/01/28 07:08:09;;;;;;;3.60;1.02;;;;;;;3.84;82.25;99229.13;5013679;28;20060;-58
2022/01/28 07:10:55;;;;;;;1.23;0.60;;;;;;;4.02;80.98;99231.13;5029706;28;20060;-58
2022/01/28 07:13:41;;;;;;;2.05;0.95;;;;;;;4.13;80.65;99222.13;5046619;28;20052;-58
2022/01/28 07:16:29;;;;;;;0.70;0.30;;;;;;;4.28;78.16;99229.38;5021404;28;20056;-58
2022/01/28 07:19:15;;;;;;;1.88;0.80;;;;;;;4.48;78.66;99222.63;5036382;28;20052;-59
2022/01/28 07:22:00;;;;;;;1.55;0.50;;;;;;;4.67;76.27;99206.38;5026673;28;20128;-61
2022/01/28 07:24:46;;;;;;;0.65;0.22;;;;;;;4.55;75.76;99229.28;5015009;28;20076;-58
2022/01/28 07:27:31;;;;;;;0.80;0.30;;;;;;;5.01;74.33;99230.25;5017769;28;20480;-57
2022/01/28 07:30:17;;;;;;;0.93;0.43;;;;;;;5.13;72.34;99236.69;5014158;28;20057;-58
2022/01/28 07:33:06;;;;;;;2.05;0.75;;;;;;;5.38;72.70;99204.56;5015019;28;20040;-63
2022/01/28 07:35:52;;;;;;;1.25;0.30;;;;;;;5.33;70.62;99206.50;5015067;28;20065;-64
2022/01/28 07:38:37;;;;;;;0.77;0.35;;;;;;;5.70;70.69;99219.75;5026952;28;20543;-62
2022/01/28 07:41:23;;;;;;;1.70;0.30;;;;;;;5.65;68.30;99226.00;5014350;28;20176;-63
2022/01/28 07:44:10;;;;;;;0.95;0.40;;;;;;;5.26;68.84;99224.94;5015640;28;20413;-63
2022/01/28 07:46:56;;;;;;;1.58;0.40;;;;;;;4.66;69.75;99217.66;5015814;28;20053;-62
2022/01/28 07:49:42;;;;;;;1.27;0.50;;;;;;;4.54;69.34;99230.19;5021879;28;20068;-63
2022/01/28 07:52:28;;;;;;;2.92;0.30;;;;;;;4.86;67.15;99213.50;5022985;28;20086;-59
2022/01/28 07:55:14;;;;;;;0.70;0.30;;;;;;;4.07;67.87;99228.38;5060230;28;20472;-58
2022/01/28 07:58:00;;;;;;;1.42;0.57;;;;;;;3.96;68.58;99230.47;5043466;28;20056;-59
2022/01/28 08:00:46;;;;;;;0.50;0.40;;;;;;;3.59;69.26;99232.56;5044159;28;20056;-57
2022/01/28 08:03:31;;;;;;;0.60;0.30;;;;;;;3.39;69.98;99239.22;5040738;28;20397;-57
2022/01/28 08:06:17;;;;;;;0.80;0.30;;;;;;;3.40;69.74;99227.94;5023249;28;20052;-59
2022/01/28 08:09:03;;;;;;;0.65;0.32;;;;;;;3.29;69.97;99242.09;5044509;28;20052;-59
2022/01/28 08:11:49;;;;;;;1.42;0.30;;;;;;;3.31;70.42;99235.09;5049396;28;20052;-59
2022/01/28 08:14:35;;;;;;;0.30;0.25;;;;;;;3.19;70.43;99245.84;5036774;28;20065;-58
2022/01/28 08:17:20;;;;;;;1.05;0.20;;;;;;;3.01;73.53;99236.88;5051878;28;20055;-59
2022/01/28 08:20:06;;;;;;;2.10;0.60;;;;;;;2.92;74.62;99248.38;5032428;28;20058;-58
2022/01/28 08:22:59;;;;;;;0.93;0.38;;;;;;;2.76;75.46;99251.41;5026578;28;20052;-58
2022/01/28 08:25:45;;;;;;;0.50;0.30;;;;;;;2.80;75.37;99239.22;5033344;28;20064;-62
2022/01/28 08:28:30;;;;;;;2.05;0.40;;;;;;;2.74;75.29;99234.22;5046667;28;20494;-58
2022/01/28 08:31:16;;;;;;;0.73;0.22;;;;;;;2.80;75.37;99236.63;5037119;28;20052;-59
2022/01/28 08:34:02;;;;;;;0.57;0.30;;;;;;;2.86;75.24;99225.28;5028396;28;20045;-58
2022/01/28 08:36:48;;;;;;;1.77;0.57;;;;;;;3.05;74.76;99217.81;5053802;28;20052;-58
2022/01/28 08:39:35;;;;;;;2.58;0.32;;;;;;;3.00;73.98;99207.59;5042596;28;20049;-58
2022/01/28 08:42:21;;;;;;;1.58;0.43;;;;;;;3.44;72.72;99214.84;5033541;28;20060;-59
2022/01/28 08:45:07;;;;;;;0.80;0.43;;;;;;;4.42;69.30;99182.16;5032341;28;20397;-59
2022/01/28 08:47:53;;;;;;;2.30;0.40;;;;;;;4.66;68.01;99173.53;5039308;28;20060;-59
2022/01/28 08:50:39;;;;;;;0.73;0.30;;;;;;;5.06;66.64;99181.53;5033319;28;20056;-59
2022/01/28 08:53:25;;;;;;;0.63;0.20;;;;;;;4.93;67.44;99196.75;5033542;28;20053;-59
2022/01/28 08:56:11;;;;;;;1.02;0.32;;;;;;;4.47;68.59;99210.56;5032962;28;20045;-58
2022/01/28 08:58:56;;;;;;;0.70;0.22;;;;;;;4.35;68.81;99213.59;5033406;28;20500;-59
2022/01/28 09:01:42;;;;;;;1.63;0.80;;;;;;;5.15;87.64;99198.53;5033663;28;20049;-60
2022/01/28 09:04:28;;;;;;;1.17;0.30;;;;;;;5.25;78.39;99205.06;5031680;28;20056;-64
2022/01/28 09:07:14;;;;;;;1.48;0.60;;;;;;;7.04;82.05;99203.56;5032176;28;20531;-60
2022/01/28 09:10:06;;;;;;;0.82;0.43;;;;;;;6.56;64.13;99198.78;5032018;28;20441;-59
2022/01/28 09:15:50;;;;;;;0.95;0.20;;;;;;;5.88;64.57;99194.75;5032796;28;20504;-59
2022/01/28 09:18:36;;;;;;;1.48;0.30;;;;;;;5.89;70.62;99218.09;5030900;28;20056;-58
2022/01/28 09:21:22;;;;;;;2.28;0.40;;;;;;;4.96;65.43;99247.75;5027036;28;20056;-63
2022/01/28 09:24:08;;;;;;;1.52;0.38;;;;;;;4.80;64.13;99240.50;5030526;28;20076;-52
2022/01/28 09:26:55;;;;;;;1.70;0.30;;;;;;;4.76;65.18;99231.16;5032851;28;20507;-60
2022/01/28 09:29:41;;;;;;;1.33;0.20;;;;;;;4.11;62.86;99258.50;5033006;28;20060;-60
2022/01/28 09:32:26;;;;;;;0.80;0.15;;;;;;;5.12;63.09;99242.81;5017297;28;20056;-63
2022/01/28 09:35:13;;;;;;;1.42;0.40;;;;;;;4.41;62.90;99247.09;5012024;28;20149;-63
2022/01/28 09:37:59;;;;;;;0.98;0.30;;;;;;;4.30;63.21;99261.31;5013177;28;20052;-64
2022/01/28 09:40:45;;;;;;;0.45;0.15;;;;;;;4.55;62.34;99280.34;5013312;28;20052;-66
2022/01/28 09:43:31;;;;;;;1.27;0.50;;;;;;;4.70;62.25;99254.75;5017713;28;20060;-63
2022/01/28 09:46:17;;;;;;;0.57;0.35;;;;;;;5.30;58.57;99255.06;5018292;28;20053;-67
2022/01/28 09:49:03;;;;;;;1.85;0.20;;;;;;;6.82;54.19;99287.91;5013633;28;20056;-66
2022/01/28 09:51:49;;;;;;;12.25;0.32;;;;;;;5.94;53.14;99194.47;5012852;28;20049;-48
2022/01/28 09:54:35;;;;;;;0.77;0.20;;;;;;;5.25;53.59;99251.84;5026562;28;20095;-51
2022/01/28 09:57:21;;;;;;;1.40;0.20;;;;;;;5.03;53.38;99249.19;5025933;28;20052;-47
2022/01/28 10:00:09;;;;;;;2.28;0.50;;;;;;;4.77;53.78;99283.03;5021092;28;20408;-50
2022/01/28 10:03:01;;;;;;;1.98;0.45;;;;;;;4.68;53.11;99268.63;5020908;28;20056;-47
2022/01/28 10:05:50;;;;;;;2.05;0.32;;;;;;;4.86;53.43;99286.19;5026752;28;20147;-49
2022/01/28 10:08:36;;;;;;;3.28;0.35;;;;;;;4.76;53.30;99294.31;5022499;28;20045;-47
2022/01/28 10:11:22;;;;;;;1.17;0.20;;;;;;;4.64;53.42;99320.69;5031065;28;20065;-46
2022/01/28 10:14:13;;;;;;;0.30;0.10;;;;;;;4.76;53.46;99290.88;5011681;28;20402;-48
2022/01/28 10:17:02;;;;;;;1.70;0.30;;;;;;;4.63;53.69;99298.25;5028527;28;20049;-46
2022/01/28 10:19:47;;;;;;;2.25;0.30;;;;;;;4.63;54.00;99299.09;5035930;28;20067;-46
2022/01/28 10:22:33;;;;;;;0.90;0.30;;;;;;;4.62;54.81;99302.56;5026157;28;20060;-46
2022/01/28 10:25:23;;;;;;;2.33;0.50;;;;;;;4.36;55.27;99303.50;5025623;28;20049;-47
2022/01/28 10:28:12;;;;;;;1.88;0.43;;;;;;;4.47;55.63;99306.59;5021841;28;20053;-46
2022/01/28 10:31:04;;;;;;;1.95;0.20;;;;;;;4.42;55.99;99319.69;5030825;28;20405;-49
2022/01/28 10:33:50;;;;;;;2.58;0.30;;;;;;;4.42;55.26;99326.66;5024733;28;20052;-46
2022/01/28 10:36:35;;;;;;;0.70;0.20;;;;;;;4.39;54.15;99306.00;5029891;28;20064;-50
2022/01/28 10:39:22;;;;;;;1.20;0.30;;;;;;;4.38;53.50;99301.69;5028134;28;20057;-48
2022/01/28 10:42:08;;;;;;;1.30;0.32;;;;;;;4.25;53.95;99294.34;5030568;28;20405;-47
2022/01/28 10:44:57;;;;;;;1.27;0.30;;;;;;;4.38;53.48;99312.91;5030397;28;20052;-49
2022/01/28 10:47:53;;;;;;;1.55;0.40;;;;;;;4.49;53.26;99314.31;5026395;28;20056;-46
2022/01/28 10:50:39;;;;;;;1.08;0.75;;;;;;;4.47;53.74;99290.16;5029750;28;20075;-46
2022/01/28 10:53:27;;;;;;;0.88;0.20;;;;;;;4.38;53.37;99293.91;5027057;28;20048;-47
2022/01/28 10:56:13;;;;;;;2.65;0.47;;;;;;;4.31;53.27;99295.84;5021938;28;20057;-49
2022/01/28 10:58:58;;;;;;;2.08;0.70;;;;;;;4.16;53.63;99281.69;5020217;28;20049;-47
2022/01/28 11:01:46;;;;;;;1.23;0.40;;;;;;;4.62;53.90;99304.34;5021720;28;20045;-51
2022/01/28 11:04:33;;;;;;;2.63;0.50;;;;;;;4.33;53.97;99294.06;5016469;28;20362;-47
2022/01/28 11:07:19;;;;;;;17.42;4.20;;;;;;;4.96;58.93;99300.50;5016165;28;20072;-54
2022/01/28 11:10:05;;;;;;;3.08;0.95;;;;;;;5.48;55.34;99296.00;5016199;28;20060;-48
2022/01/28 11:12:52;;;;;;;45.28;11.88;;;;;;;5.69;87.41;99301.25;5015928;28;20053;-46
2022/01/28 11:15:38;;;;;;;1.20;0.22;;;;;;;4.86;54.55;99291.38;5015616;28;20524;-47
2022/01/28 11:18:26;;;;;;;1.60;0.22;;;;;;;4.45;55.85;99310.97;5015709;28;20052;-48
2022/01/28 11:21:17;;;;;;;1.17;0.20;;;;;;;4.35;57.39;99296.59;4982200;28;20054;-50
2022/01/28 11:24:18;;;;;;;2.05;0.40;;;;;;;4.36;58.77;99319.06;4995101;28;20046;-49
2022/01/28 11:27:35;;;;;;;3.85;0.85;;;;;;;4.42;62.36;99309.31;4995681;28;20053;-49
2022/01/28 11:30:28;;;;;;;3.55;0.43;;;;;;;4.39;61.46;99311.19;4995032;28;20057;-52
2022/01/28 11:33:15;;;;;;;3.13;0.60;;;;;;;4.18;63.87;99330.00;4995636;28;20070;-52
2022/01/28 11:36:03;;;;;;;3.00;0.63;;;;;;;4.35;63.80;99338.13;4996604;28;20073;-46
2022/01/28 11:38:49;;;;;;;19.92;6.13;;;;;;;7.32;83.95;99331.75;4995245;28;20045;-45
2022/01/28 11:41:36;;;;;;;1.38;0.30;;;;;;;5.32;57.87;99343.34;4995059;28;20054;-49
2022/01/28 11:44:45;;;;;;;2.28;0.20;;;;;;;4.32;60.39;99365.84;4994925;28;20057;-47
2022/01/28 11:47:56;;;;;;;0.52;0.20;;;;;;;4.05;60.78;99365.88;4996049;28;20054;-47
2022/01/28 11:50:50;;;;;;;1.25;0.22;;;;;;;4.11;60.03;99369.16;4995944;28;20061;-48
2022/01/28 11:53:55;;;;;;;0.75;0.25;;;;;;;4.01;59.76;99361.69;4995800;28;20505;-48
2022/01/28 11:56:56;;;;;;;1.80;0.20;;;;;;;3.92;59.46;99360.22;4995269;28;20402;-48
2022/01/28 11:59:41;;;;;;;1.05;0.52;;;;;;;3.80;59.74;99360.63;4993702;28;20461;-49
2022/01/28 12:02:27;;;;;;;0.60;0.25;;;;;;;3.82;60.25;99369.16;4992313;28;20068;-51
2022/01/28 12:05:26;;;;;;;2.65;0.55;;;;;;;3.84;60.80;99369.13;4973997;28;20581;-50
2022/01/28 12:08:13;;;;;;;1.85;0.57;;;;;;;3.78;61.02;99367.59;4974745;28;20066;-51
2022/01/28 12:11:02;;;;;;;0.45;0.20;;;;;;;3.69;61.89;99342.78;4975867;28;20403;-54
2022/01/28 12:13:49;;;;;;;2.25;0.82;;;;;;;3.83;61.78;99363.09;4975536;28;20058;-50
2022/01/28 12:16:40;;;;;;;1.55;0.35;;;;;;;3.82;61.74;99332.88;4983776;28;20061;-50
2022/01/28 12:19:31;;;;;;;0.43;0.20;;;;;;;3.80;61.80;99369.22;5002303;28;20049;-50
2022/01/28 12:22:17;;;;;;;3.60;0.30;;;;;;;3.76;61.50;99340.84;5033814;28;20060;-50
2022/01/28 12:25:23;;;;;;;1.70;0.50;;;;;;;3.78;62.12;99355.47;5033948;28;20052;-47
2022/01/28 12:28:20;;;;;;;2.03;0.40;;;;;;;3.73;61.63;99339.22;5032840;28;20057;-50
2022/01/28 12:31:12;;;;;;;2.85;0.50;;;;;;;3.77;61.14;99335.63;5034259;28;20056;-47
2022/01/28 12:34:03;;;;;;;1.02;0.28;;;;;;;3.73;60.08;99300.34;5032654;28;20416;-47
2022/01/28 12:36:49;;;;;;;2.83;0.20;;;;;;;3.84;59.53;99325.06;5034062;28;20072;-49
2022/01/28 12:39:50;;;;;;;1.75;0.57;;;;;;;3.72;59.53;99290.84;5020539;28;20056;-52
2022/01/28 12:42:39;;;;;;;2.45;0.52;;;;;;;3.87;59.36;99292.09;5013954;28;20044;-49
2022/01/28 12:45:25;;;;;;;1.00;0.30;;;;;;;3.93;59.50;99341.16;5014061;28;20057;-49
2022/01/28 12:48:11;;;;;;;1.27;0.20;;;;;;;3.86;59.40;99336.22;5013809;28;20053;-49
2022/01/28 12:50:58;;;;;;;2.47;0.30;;;;;;;3.89;58.92;99342.16;5013596;28;20068;-49
2022/01/28 12:53:54;;;;;;;2.17;0.50;;;;;;;3.88;58.57;99347.41;5012982;28;20121;-50
2022/01/28 12:56:41;;;;;;;3.15;0.50;;;;;;;3.76;58.86;99348.63;5014481;28;20049;-46
2022/01/28 12:59:27;;;;;;;1.30;0.60;;;;;;;3.76;58.79;99328.75;5012602;28;20045;-47
2022/01/28 13:02:14;;;;;;;1.23;0.63;;;;;;;3.88;58.46;99335.31;5018762;28;20057;-49
2022/01/28 13:10:52;;;;;;;9.10;2.40;;;;;;;3.92;59.93;99326.50;5013528;28;20061;-48
2022/01/28 13:13:50;;;;;;;1.08;0.55;;;;;;;3.84;58.02;99338.88;5026570;28;20396;-49
2022/01/28 13:16:41;;;;;;;2.65;0.52;;;;;;;3.68;58.16;99316.03;5030894;28;20052;-48
2022/01/28 13:19:27;;;;;;;1.80;0.45;;;;;;;3.81;58.01;99332.06;5035742;28;20068;-50
2022/01/28 13:22:13;;;;;;;4.32;0.95;;;;;;;3.84;58.08;99340.59;5031130;28;20044;-50
2022/01/28 13:24:59;;;;;;;3.10;0.60;;;;;;;3.83;57.78;99337.19;5027388;28;20040;-49
2022/01/28 13:27:49;;;;;;;1.38;0.35;;;;;;;3.68;58.12;99325.53;5029646;28;20056;-52
2022/01/28 13:30:37;;;;;;;1.88;0.85;;;;;;;3.70;58.45;99347.09;5026956;28;20048;-49
2022/01/28 13:33:34;;;;;;;1.60;0.45;;;;;;;3.79;58.78;99364.94;5030058;28;20056;-47
2022/01/28 13:36:19;;;;;;;1.33;0.30;;;;;;;3.74;58.91;99359.03;5027970;28;20052;-51
2022/01/28 13:39:17;;;;;;;0.70;0.40;;;;;;;3.72;58.83;99352.22;5060042;28;20056;-47
2022/01/28 13:42:12;;;;;;;1.55;0.50;;;;;;;3.72;59.51;99354.81;5035809;28;20060;-50
2022/01/28 13:45:04;;;;;;;1.92;0.45;;;;;;;3.68;60.15;99341.09;5032475;28;20056;-48
2022/01/28 13:47:52;;;;;;;0.95;0.30;;;;;;;3.43;61.00;99324.56;5032357;28;20056;-48
2022/01/28 13:50:43;;;;;;;2.60;0.63;;;;;;;3.55;61.74;99328.53;5031706;28;20057;-46
2022/01/28 13:56:15;;;;;;;1.38;0.40;;;;;;;3.23;63.84;99343.28;5032751;28;20049;-48
2022/01/28 13:59:01;;;;;;;1.33;0.32;;;;;;;3.37;64.63;99375.69;5038350;28;20048;-46
2022/01/28 14:01:49;;;;;;;3.13;0.73;;;;;;;3.26;65.01;99353.56;5011819;28;20049;-48
2022/01/28 14:04:41;;;;;;;1.08;0.38;;;;;;;3.26;64.76;99376.88;5012180;28;20512;-46
2022/01/28 14:07:27;;;;;;;2.95;0.32;;;;;;;3.20;64.59;99367.53;5011989;28;20397;-49
2022/01/28 14:10:16;;;;;;;0.65;0.28;;;;;;;3.20;63.95;99371.84;5012060;28;20064;-47
2022/01/28 14:13:19;;;;;;;3.15;0.60;;;;;;;3.17;63.50;99365.03;5012238;28;20065;-49
2022/01/28 14:16:13;;;;;;;2.47;0.70;;;;;;;3.19;63.52;99409.84;5012180;28;20048;-47
2022/01/28 14:18:59;;;;;;;0.93;0.50;;;;;;;3.08;63.70;99415.31;5011694;28;20052;-52
2022/01/28 14:21:46;;;;;;;5.22;1.63;;;;;;;3.09;64.14;99374.75;5012338;28;20397;-51
2022/01/28 14:24:34;;;;;;;9.15;2.10;;;;;;;3.19;64.92;99409.00;5036528;28;20056;-48
2022/01/28 14:33:04;;;;;;;3.47;0.80;;;;;;;3.07;64.73;99411.03;5030586;28;20056;-48
2022/01/28 14:35:49;;;;;;;3.28;0.63;;;;;;;2.99;65.00;99422.50;5030662;28;20055;-48
2022/01/28 14:38:35;;;;;;;2.15;0.57;;;;;;;3.03;65.26;99453.44;5031622;28;20048;-51
2022/01/28 14:41:20;;;;;;;84.55;25.17;;;;;;;3.49;72.29;99449.63;5031047;28;20060;-51
2022/01/28 14:44:06;;;;;;;4.88;1.13;;;;;;;3.07;65.39;99446.41;5018631;28;20053;-51
2022/01/28 14:46:52;;;;;;;3.28;0.80;;;;;;;3.07;65.74;99454.19;5024028;28;20052;-49
2022/01/28 14:49:39;;;;;;;3.65;0.95;;;;;;;3.01;65.87;99455.22;5035089;28;20507;-52
2022/01/28 14:52:29;;;;;;;1.85;0.60;;;;;;;3.01;65.73;99472.47;5002345;28;20068;-52
2022/01/28 14:55:14;;;;;;;5.75;0.80;;;;;;;3.01;65.82;99459.53;5031106;28;20049;-48
2022/01/28 14:58:00;;;;;;;2.55;0.82;;;;;;;2.97;66.31;99474.28;5031266;28;20052;-52
2022/01/28 15:00:46;;;;;;;1.33;0.70;;;;;;;2.98;66.34;99478.59;5028203;28;20056;-53
2022/01/28 15:03:33;;;;;;;1.73;0.70;;;;;;;2.89;66.16;99484.84;5029354;28;20393;-52